Time;durP1;ratioP1;P1;durP2;ratioP2;P2;SDS_P1;SDS_P2;PMS_P1;PMS_P2;Temp;Humidity;BMP_temperature;BMP_pressure;BME280_temperature;BME280_humidity;BME280_pressure;Samples;Min_cycle;Max_cycle;Signal;HPM_P1;HPM_P2
2023/09/19 00:01:27;;;;;;;7.70;2.15;;;17.30;99.90;;;;;;6319244;22;19999;-92
2023/09/19 00:03:53;;;;;;;5.47;1.70;;;16.30;99.90;;;;;;6318851;22;20022;-91
2023/09/19 00:06:20;;;;;;;9.85;1.75;;;17.50;99.90;;;;;;6307880;22;20469;-90
2023/09/19 00:08:55;;;;;;;9.25;1.95;;;16.40;99.90;;;;;;6307677;22;20141;-90
2023/09/19 00:11:20;;;;;;;4.47;1.55;;;16.70;99.90;;;;;;6312176;22;19999;-90
2023/09/19 00:13:49;;;;;;;7.82;1.75;;;17.50;99.90;;;;;;6311401;22;20007;-90
2023/09/19 00:16:35;;;;;;;12.60;2.28;;;16.90;99.90;;;;;;6314481;22;20007;-90
2023/09/19 00:19:01;;;;;;;6.07;1.55;;;17.60;99.90;;;;;;6308777;22;19999;-89
2023/09/19 00:21:46;;;;;;;7.97;2.25;;;17.60;99.90;;;;;;6309791;22;20003;-89
2023/09/19 00:24:13;;;;;;;7.50;1.70;;;16.60;99.90;;;;;;6308055;22;20064;-89
2023/09/19 00:26:59;;;;;;;8.15;1.90;;;16.70;99.90;;;;;;6317345;22;19999;-89
2023/09/19 00:29:29;;;;;;;7.07;2.05;;;16.90;99.90;;;;;;6314942;22;20015;-90
2023/09/19 00:32:13;;;;;;;5.73;1.60;;;17.40;99.90;;;;;;6317812;22;20420;-90
2023/09/19 00:34:58;;;;;;;10.23;2.03;;;17.60;99.90;;;;;;6307868;22;19999;-90
2023/09/19 00:37:45;;;;;;;8.30;1.90;;;17.50;99.90;;;;;;6307662;22;20069;-91
2023/09/19 00:40:15;;;;;;;9.70;2.45;;;17.30;99.90;;;;;;6307828;22;20023;-91
2023/09/19 00:45:21;;;;;;;;;;;16.50;99.90;;;;;;6307268;22;20027;-92
2023/09/19 00:47:49;;;;;;;4.10;2.20;;;16.50;99.90;;;;;;6306992;22;19961;-90
2023/09/19 00:50:36;;;;;;;4.93;1.90;;;17.60;99.90;;;;;;6306946;22;20301;-90
2023/09/19 00:53:09;;;;;;;6.28;1.52;;;16.60;99.90;;;;;;6307729;22;20007;-92
2023/09/19 00:55:50;;;;;;;4.03;2.25;;;16.60;99.90;;;;;;6320702;22;19983;-90
2023/09/19 00:58:37;;;;;;;4.60;2.03;;;16.60;99.90;;;;;;6317843;22;20015;-90
2023/09/19 01:01:06;;;;;;;9.15;2.28;;;17.20;99.90;;;;;;6306625;22;20007;-90
2023/09/19 01:03:50;;;;;;;4.88;1.58;;;17.80;99.90;;;;;;6310968;22;20000;-90
2023/09/19 01:06:17;;;;;;;5.55;2.05;;;17.90;99.90;;;;;;6324790;22;20053;-92
2023/09/19 01:09:03;;;;;;;9.43;2.40;;;16.70;99.90;;;;;;6310266;22;20003;-92
2023/09/19 01:11:36;;;;;;;8.10;2.28;;;16.70;99.90;;;;;;6307493;22;19992;-91
2023/09/19 01:14:27;;;;;;;8.27;2.17;;;17.60;99.90;;;;;;6308332;22;20003;-90
2023/09/19 01:17:41;;;;;;;8.38;2.08;;;16.70;99.90;;;;;;6314982;22;20059;-91
2023/09/19 01:20:29;;;;;;;3.17;1.52;;;16.60;99.90;;;;;;6304912;22;20002;-92
2023/09/19 01:23:18;;;;;;;9.10;2.47;;;16.50;99.90;;;;;;6306884;22;20110;-90
2023/09/19 01:29:05;;;;;;;9.32;1.85;;;16.40;99.90;;;;;;6305977;22;20022;-91
2023/09/19 01:31:35;;;;;;;9.52;2.53;;;16.30;99.90;;;;;;6308751;22;20007;-91
2023/09/19 01:34:04;;;;;;;6.00;2.45;;;16.90;99.90;;;;;;6309683;22;20011;-92
2023/09/19 01:36:35;;;;;;;6.50;2.60;;;16.20;99.90;;;;;;6309629;22;20026;-90
2023/09/19 01:39:19;;;;;;;7.78;2.63;;;16.20;99.90;;;;;;6308865;22;19995;-90
2023/09/19 01:44:48;;;;;;;8.25;2.35;;;16.10;99.90;;;;;;6247035;22;20016;-90
2023/09/19 01:47:36;;;;;;;4.70;2.20;;;16.10;99.90;;;;;;6246114;23;20050;-90
2023/09/19 01:50:32;;;;;;;9.82;2.47;;;16.50;99.90;;;;;;6255481;22;20000;-90
2023/09/19 01:53:21;;;;;;;10.93;2.50;;;15.90;99.90;;;;;;6257131;22;20039;-91
2023/09/19 01:55:50;;;;;;;7.82;2.15;;;16.00;99.90;;;;;;6248133;23;20058;-90
2023/09/19 01:58:32;;;;;;;8.73;1.98;;;16.30;99.90;;;;;;6248779;23;20424;-91
2023/09/19 02:01:00;;;;;;;12.32;3.05;;;15.90;99.90;;;;;;6248466;22;20000;-91
2023/09/19 02:03:30;;;;;;;11.57;2.83;;;16.00;99.90;;;;;;6251491;23;20056;-91
2023/09/19 02:05:56;;;;;;;9.77;2.60;;;16.90;99.90;;;;;;6271430;22;20004;-91
2023/09/19 02:08:25;;;;;;;10.52;2.65;;;15.90;99.90;;;;;;6264182;23;20004;-90
2023/09/19 02:10:52;;;;;;;7.50;2.40;;;15.90;99.90;;;;;;6259859;23;20008;-90
2023/09/19 02:13:24;;;;;;;11.57;2.75;;;16.10;99.90;;;;;;6257783;23;19996;-90
2023/09/19 02:15:50;;;;;;;10.23;2.30;;;16.10;99.90;;;;;;6264756;23;20055;-90
2023/09/19 02:18:16;;;;;;;11.15;2.92;;;16.00;99.90;;;;;;6251946;23;20011;-90
2023/09/19 02:20:42;;;;;;;8.85;2.53;;;16.80;99.90;;;;;;6266333;23;19996;-90
2023/09/19 02:23:08;;;;;;;13.55;2.83;;;15.90;99.90;;;;;;6246935;23;20075;-91
2023/09/19 02:25:35;;;;;;;12.50;2.72;;;15.90;99.90;;;;;;6246547;23;20000;-91
2023/09/19 02:28:03;;;;;;;13.98;2.47;;;16.70;99.90;;;;;;6247249;23;20000;-92
2023/09/19 02:30:29;;;;;;;9.00;2.53;;;16.10;99.90;;;;;;6246823;23;20030;-90
2023/09/19 02:32:55;;;;;;;14.18;3.13;;;15.90;99.90;;;;;;6247440;23;20004;-91
2023/09/19 02:35:22;;;;;;;11.68;2.53;;;16.70;99.90;;;;;;6246987;23;20059;-91
2023/09/19 02:38:06;;;;;;;12.43;3.15;;;15.80;99.90;;;;;;6247285;23;20008;-92
2023/09/19 02:40:35;;;;;;;14.85;3.80;;;16.10;99.90;;;;;;6247074;23;20010;-90
2023/09/19 02:43:25;;;;;;;16.20;3.25;;;17.20;99.90;;;;;;6267270;22;20011;-91
2023/09/19 02:45:59;;;;;;;14.90;2.63;;;15.80;99.90;;;;;;6306544;22;20011;-90
2023/09/19 02:48:25;;;;;;;14.95;2.90;;;15.80;99.90;;;;;;6310385;22;20349;-90
2023/09/19 02:50:51;;;;;;;14.35;2.53;;;16.40;99.90;;;;;;6309330;22;20003;-90
2023/09/19 02:53:26;;;;;;;11.15;2.42;;;15.00;99.90;;;;;;6308650;22;20010;-90
2023/09/19 02:56:11;;;;;;;13.50;3.15;;;15.70;99.90;;;;;;6307743;22;20011;-90
2023/09/19 02:58:37;;;;;;;15.65;3.00;;;16.60;99.90;;;;;;6308656;22;20011;-90
2023/09/19 03:01:12;;;;;;;16.13;3.33;;;16.30;99.90;;;;;;6308720;22;20074;-90
2023/09/19 03:03:53;;;;;;;17.92;3.50;;;15.70;99.90;;;;;;6308083;22;20011;-91
2023/09/19 03:06:20;;;;;;;12.50;3.70;;;15.70;99.90;;;;;;6308825;22;20353;-90
2023/09/19 03:08:55;;;;;;;12.80;3.33;;;15.70;99.90;;;;;;6321943;22;20010;-90
2023/09/19 03:11:22;;;;;;;13.18;2.55;;;15.70;99.90;;;;;;6315529;22;20003;-89
2023/09/19 03:14:00;;;;;;;7.78;2.83;;;15.30;99.90;;;;;;6303704;22;19999;-89
2023/09/19 03:16:25;;;;;;;13.90;2.97;;;15.80;99.90;;;;;;6308133;22;20078;-89
2023/09/19 03:18:51;;;;;;;10.52;2.97;;;16.10;99.90;;;;;;6308127;22;20107;-89
2023/09/19 03:21:17;;;;;;;12.40;3.03;;;15.60;99.90;;;;;;6308178;22;20006;-91
2023/09/19 03:23:45;;;;;;;10.77;2.92;;;15.60;99.90;;;;;;6307690;22;20013;-92
2023/09/19 03:26:26;;;;;;;11.50;3.13;;;16.90;99.90;;;;;;6308531;22;20000;-89
2023/09/19 03:28:51;;;;;;;12.23;2.47;;;16.70;99.90;;;;;;6308453;22;20487;-90
2023/09/19 03:31:36;;;;;;;11.25;2.75;;;16.80;99.90;;;;;;6308424;22;20080;-90
2023/09/19 03:34:05;;;;;;;10.70;2.70;;;15.60;99.90;;;;;;6308953;22;20454;-91
2023/09/19 03:36:31;;;;;;;11.50;2.72;;;14.90;99.90;;;;;;6308119;22;20451;-91
2023/09/19 03:38:56;;;;;;;15.73;3.53;;;16.00;99.90;;;;;;6309588;22;20003;-87
2023/09/19 03:41:22;;;;;;;12.27;2.83;;;15.80;99.90;;;;;;6328981;22;20039;-89
2023/09/19 03:43:48;;;;;;;11.02;2.60;;;16.70;99.90;;;;;;6311955;22;20015;-90
2023/09/19 03:46:22;;;;;;;10.35;2.45;;;15.60;99.90;;;;;;6307676;22;20056;-89
2023/09/19 03:48:48;;;;;;;10.30;2.60;;;15.60;99.90;;;;;;6307668;22;20031;-89
2023/09/19 03:51:13;;;;;;;10.73;3.22;;;16.90;99.90;;;;;;6308090;22;20006;-91
2023/09/19 03:53:42;;;;;;;7.80;2.67;;;15.40;99.90;;;;;;6307744;22;20048;-89
2023/09/19 03:56:08;;;;;;;12.57;3.15;;;16.10;99.90;;;;;;6309681;22;20007;-89
2023/09/19 03:58:38;;;;;;;10.93;3.33;;;16.80;99.90;;;;;;6311768;22;20007;-89
2023/09/19 04:01:22;;;;;;;13.05;2.63;;;16.80;99.90;;;;;;6317461;22;20003;-89
2023/09/19 04:03:47;;;;;;;14.32;3.75;;;16.10;99.90;;;;;;6319229;22;20029;-91
2023/09/19 04:06:14;;;;;;;11.57;3.33;;;15.40;99.90;;;;;;6323931;22;20003;-91
2023/09/19 04:08:44;;;;;;;15.70;2.95;;;16.50;99.90;;;;;;6322250;22;19995;-89
2023/09/19 04:11:10;;;;;;;9.15;2.67;;;15.60;99.90;;;;;;6322057;22;20003;-91
2023/09/19 04:13:36;;;;;;;13.98;3.00;;;15.90;99.90;;;;;;6331451;22;20058;-90
2023/09/19 04:16:23;;;;;;;8.15;2.38;;;16.60;99.90;;;;;;6310875;22;19999;-90
2023/09/19 04:18:48;;;;;;;10.60;2.15;;;15.40;99.90;;;;;;6307042;22;20034;-91
2023/09/19 04:21:26;;;;;;;7.43;2.30;;;16.40;99.90;;;;;;6307288;22;20026;-91
2023/09/19 04:23:52;;;;;;;16.02;3.67;;;16.60;99.90;;;;;;6307263;22;20181;-90
2023/09/19 04:26:17;;;;;;;12.48;2.42;;;15.60;99.90;;;;;;6308054;22;19995;-91
2023/09/19 04:28:47;;;;;;;15.30;3.33;;;15.30;99.90;;;;;;6306409;22;20026;-91
2023/09/19 04:31:14;;;;;;;13.23;3.37;;;16.70;99.90;;;;;;6308591;22;19999;-90
2023/09/19 04:33:45;;;;;;;13.32;3.10;;;15.80;99.90;;;;;;6318497;22;19991;-91
2023/09/19 04:36:13;;;;;;;7.65;2.30;;;16.30;99.90;;;;;;6330563;22;20106;-91
2023/09/19 04:38:38;;;;;;;8.90;2.60;;;16.00;99.90;;;;;;6319919;22;19995;-89
2023/09/19 04:41:23;;;;;;;8.45;2.50;;;16.00;99.90;;;;;;6307253;22;20044;-90
2023/09/19 04:43:52;;;;;;;8.00;2.28;;;16.60;99.90;;;;;;6307055;22;20451;-91
2023/09/19 04:46:26;;;;;;;15.43;3.45;;;15.90;99.90;;;;;;6308253;22;19995;-90
2023/09/19 04:48:52;;;;;;;17.58;2.67;;;15.50;99.90;;;;;;6306883;22;20064;-90
2023/09/19 04:51:18;;;;;;;17.52;2.40;;;15.20;99.90;;;;;;6308000;22;20355;-91
2023/09/19 04:53:50;;;;;;;7.38;2.63;;;16.60;99.90;;;;;;6299462;22;20007;-89
2023/09/19 04:56:16;;;;;;;13.65;3.17;;;15.10;99.90;;;;;;6307869;22;20073;-90
2023/09/19 04:58:54;;;;;;;15.48;2.83;;;16.50;99.90;;;;;;6307352;22;20432;-90
2023/09/19 05:01:22;;;;;;;10.50;2.75;;;16.60;99.90;;;;;;6308224;22;20496;-90
2023/09/19 05:03:52;;;;;;;9.88;2.88;;;16.50;99.90;;;;;;6310771;22;19999;-90
2023/09/19 05:06:35;;;;;;;16.03;3.00;;;16.30;99.90;;;;;;6315046;22;20035;-91
2023/09/19 05:09:05;;;;;;;11.63;2.60;;;16.50;99.90;;;;;;6309821;22;20034;-90
2023/09/19 05:11:41;;;;;;;10.48;2.95;;;15.20;99.90;;;;;;6313427;22;20018;-91
2023/09/19 05:14:06;;;;;;;13.13;2.85;;;16.20;99.90;;;;;;6329661;22;20015;-90
2023/09/19 05:16:32;;;;;;;11.02;2.85;;;16.80;99.90;;;;;;6330990;22;20078;-90
2023/09/19 05:19:01;;;;;;;10.40;3.50;;;15.80;99.90;;;;;;6312983;22;20021;-91
2023/09/19 05:21:43;;;;;;;12.20;3.05;;;15.60;99.90;;;;;;6302334;22;20354;-90
2023/09/19 05:24:09;;;;;;;11.43;2.53;;;15.50;99.90;;;;;;6309077;22;20061;-89
2023/09/19 05:26:35;;;;;;;12.98;3.05;;;16.50;99.90;;;;;;6309727;22;20033;-89
2023/09/19 05:29:13;;;;;;;19.58;2.92;;;15.80;99.90;;;;;;6317060;22;20000;-90
2023/09/19 05:31:40;;;;;;;13.50;3.65;;;15.30;99.90;;;;;;6330060;22;20007;-88
2023/09/19 05:34:06;;;;;;;12.60;3.53;;;15.30;99.90;;;;;;6312992;22;20014;-88
2023/09/19 05:36:52;;;;;;;8.73;2.95;;;15.70;99.90;;;;;;6307639;22;20097;-89
2023/09/19 05:39:17;;;;;;;16.83;3.75;;;16.60;99.90;;;;;;6308751;22;20431;-89
2023/09/19 05:41:43;;;;;;;15.63;3.88;;;15.30;99.90;;;;;;6308874;22;20014;-85
2023/09/19 05:44:34;;;;;;;13.88;3.13;;;15.80;99.90;;;;;;6306142;22;20011;-89
2023/09/19 05:46:59;;;;;;;19.33;3.40;;;15.40;99.90;;;;;;6312304;22;20044;-91
2023/09/19 05:49:45;;;;;;;15.57;3.33;;;15.90;99.90;;;;;;6310482;22;20010;-91
2023/09/19 05:52:11;;;;;;;11.73;3.42;;;15.30;99.90;;;;;;6315806;22;20016;-90
2023/09/19 05:54:56;;;;;;;18.42;3.95;;;16.30;99.90;;;;;;6321254;22;20007;-92
2023/09/19 05:57:22;;;;;;;16.58;3.35;;;15.30;99.90;;;;;;6330939;22;20011;-94
2023/09/19 06:00:10;;;;;;;16.35;3.67;;;15.80;99.90;;;;;;6329433;22;20015;-94
2023/09/19 06:02:37;;;;;;;19.27;3.67;;;15.20;99.90;;;;;;6323818;22;20015;-91
2023/09/19 06:05:23;;;;;;;15.27;3.30;;;15.30;99.90;;;;;;6319310;22;19996;-92
2023/09/19 06:07:48;;;;;;;11.32;3.33;;;15.60;99.90;;;;;;6312235;22;20083;-92
2023/09/19 06:10:33;;;;;;;12.82;3.33;;;15.20;99.90;;;;;;6310084;22;20048;-91
2023/09/19 06:13:00;;;;;;;15.27;3.95;;;16.50;99.90;;;;;;6309917;22;20010;-92
2023/09/19 06:15:26;;;;;;;12.50;3.25;;;15.60;99.90;;;;;;6312406;22;20082;-91
2023/09/19 06:18:13;;;;;;;14.90;3.92;;;15.90;99.90;;;;;;6321754;22;20090;-91
2023/09/19 06:20:44;;;;;;;15.80;3.40;;;16.40;99.90;;;;;;6321075;22;20474;-91
2023/09/19 06:23:29;;;;;;;16.05;3.88;;;15.20;99.90;;;;;;6320100;22;19983;-91
2023/09/19 06:25:54;;;;;;;15.65;3.97;;;15.80;99.90;;;;;;6333422;22;19999;-91
2023/09/19 06:28:24;;;;;;;12.52;2.85;;;15.90;99.90;;;;;;6322229;22;20031;-91
2023/09/19 06:31:02;;;;;;;13.70;2.67;;;15.40;99.90;;;;;;6301244;22;20452;-91
2023/09/19 06:33:27;;;;;;;13.50;3.78;;;16.20;99.90;;;;;;6312736;22;20007;-90
2023/09/19 06:35:59;;;;;;;14.05;3.67;;;16.60;99.90;;;;;;6311709;22;20057;-92
2023/09/19 06:38:32;;;;;;;12.85;4.15;;;15.80;99.90;;;;;;6310162;22;20003;-91
2023/09/19 06:40:58;;;;;;;11.75;3.13;;;15.70;99.90;;;;;;6310427;22;20033;-92
2023/09/19 06:43:24;;;;;;;14.32;2.97;;;15.20;99.90;;;;;;6309737;22;20000;-90
2023/09/19 06:46:09;;;;;;;10.43;3.33;;;16.20;99.90;;;;;;6310102;22;20072;-90
2023/09/19 06:48:35;;;;;;;20.80;5.15;;;15.70;99.90;;;;;;6307733;22;20003;-92
2023/09/19 06:51:05;;;;;;;21.55;3.78;;;15.20;99.90;;;;;;6307441;22;20082;-91
2023/09/19 06:53:58;;;;;;;19.57;3.60;;;16.50;99.90;;;;;;6305888;22;20143;-91
2023/09/19 06:56:41;;;;;;;11.52;2.78;;;15.40;99.90;;;;;;6306541;22;20360;-90
2023/09/19 06:59:07;;;;;;;20.52;3.17;;;15.20;99.90;;;;;;6305884;22;20007;-91
2023/09/19 07:01:33;;;;;;;16.85;4.60;;;15.30;99.90;;;;;;6307045;22;20369;-92
2023/09/19 07:03:59;;;;;;;14.48;3.70;;;15.80;99.90;;;;;;6306277;22;20010;-91
2023/09/19 07:06:42;;;;;;;12.52;3.80;;;15.50;99.90;;;;;;6305851;22;20003;-91
2023/09/19 07:09:09;;;;;;;19.80;3.90;;;15.40;99.90;;;;;;6279456;22;20008;-91
2023/09/19 07:11:35;;;;;;;13.43;3.30;;;15.40;99.90;;;;;;6307307;22;20019;-91
2023/09/19 07:14:01;;;;;;;17.25;3.83;;;16.40;99.90;;;;;;6308732;22;20542;-91
2023/09/19 07:16:30;;;;;;;20.63;3.88;;;16.80;99.90;;;;;;6309091;22;20023;-91
2023/09/19 07:19:01;;;;;;;16.63;3.17;;;15.40;99.90;;;;;;6325716;22;20518;-88
2023/09/19 07:21:37;;;;;;;13.13;3.60;;;16.80;99.90;;;;;;6331656;22;20001;-90
2023/09/19 07:24:03;;;;;;;13.27;3.15;;;16.60;99.90;;;;;;6320493;22;20026;-91
2023/09/19 07:26:29;;;;;;;16.63;3.78;;;15.50;99.90;;;;;;6311939;22;20003;-88
2023/09/19 07:29:10;;;;;;;12.70;2.67;;;16.40;99.90;;;;;;6308528;22;19995;-88
2023/09/19 07:31:53;;;;;;;19.52;3.55;;;15.90;99.90;;;;;;6306965;22;20034;-85
2023/09/19 07:34:21;;;;;;;18.02;3.95;;;16.50;99.90;;;;;;6309115;22;20011;-90
2023/09/19 07:36:47;;;;;;;18.38;4.30;;;15.50;99.90;;;;;;6308427;22;20372;-89
2023/09/19 07:39:13;;;;;;;19.88;4.10;;;16.70;99.90;;;;;;6310331;22;20051;-92
2023/09/19 07:41:54;;;;;;;14.77;3.25;;;15.60;99.90;;;;;;6310365;22;19999;-89
2023/09/19 07:44:20;;;;;;;14.93;3.58;;;15.60;99.90;;;;;;6315372;22;19995;-89
2023/09/19 07:46:45;;;;;;;18.38;3.80;;;16.30;99.90;;;;;;6318410;22;20056;-91
2023/09/19 07:49:11;;;;;;;14.30;3.58;;;16.70;99.90;;;;;;6324358;22;20003;-88
2023/09/19 07:51:57;;;;;;;15.38;4.03;;;16.10;99.90;;;;;;6313727;22;20003;-88
2023/09/19 07:54:22;;;;;;;15.77;4.10;;;15.30;99.90;;;;;;6308742;22;20011;-85
2023/09/19 07:56:48;;;;;;;15.82;3.83;;;16.20;99.90;;;;;;6307110;22;20765;-86
2023/09/19 07:59:13;;;;;;;19.75;4.60;;;16.10;99.90;;;;;;6306530;22;19995;-87
2023/09/19 08:01:40;;;;;;;20.83;4.28;;;15.80;99.90;;;;;;6306953;22;20043;-86
2023/09/19 08:04:07;;;;;;;14.55;3.70;;;16.00;99.90;;;;;;6312412;22;20424;-88
2023/09/19 08:06:33;;;;;;;24.10;4.55;;;15.80;99.90;;;;;;6308643;22;20007;-85
2023/09/19 08:09:00;;;;;;;14.35;3.45;;;15.80;99.90;;;;;;6309377;22;20003;-88
2023/09/19 08:11:26;;;;;;;15.73;3.72;;;15.90;99.90;;;;;;6308234;22;20007;-89
2023/09/19 08:13:52;;;;;;;14.30;3.50;;;15.90;99.90;;;;;;6331846;22;19987;-87
2023/09/19 08:16:22;;;;;;;19.55;4.13;;;15.80;99.90;;;;;;6319603;22;20008;-87
2023/09/19 08:21:32;;;;;;;20.77;4.05;;;16.00;99.90;;;;;;6308264;22;20009;-88
2023/09/19 08:23:57;;;;;;;17.92;4.60;;;16.70;99.90;;;;;;6313056;22;20055;-90
2023/09/19 08:26:24;;;;;;;17.15;3.85;;;16.00;99.90;;;;;;6329366;22;20012;-88
2023/09/19 08:28:51;;;;;;;15.15;4.07;;;16.00;99.90;;;;;;6310279;22;20015;-88
2023/09/19 08:31:17;;;;;;;14.45;3.83;;;16.10;99.90;;;;;;6308766;22;20003;-90
2023/09/19 08:33:43;;;;;;;22.75;3.83;;;16.00;99.90;;;;;;6308061;22;20010;-90
2023/09/19 08:36:09;;;;;;;15.70;3.33;;;16.00;99.90;;;;;;6307904;22;20011;-89
2023/09/19 08:38:35;;;;;;;23.45;3.75;;;16.00;99.90;;;;;;6307664;22;19995;-87
2023/09/19 08:41:06;;;;;;;19.20;3.97;;;16.10;99.90;;;;;;6307277;22;20381;-89
2023/09/19 08:43:33;;;;;;;18.27;4.05;;;16.10;99.90;;;;;;6307443;22;20067;-89
2023/09/19 08:46:14;;;;;;;17.35;4.03;;;16.10;99.90;;;;;;6307160;22;20011;-87
2023/09/19 08:48:54;;;;;;;14.20;3.33;;;16.50;99.90;;;;;;6305927;22;20003;-86
2023/09/19 08:51:52;;;;;;;15.30;3.67;;;16.20;99.90;;;;;;6306548;22;19999;-89
2023/09/19 08:54:22;;;;;;;18.17;3.80;;;16.20;99.90;;;;;;6281777;22;20015;-88
2023/09/19 08:56:50;;;;;;;15.32;3.20;;;16.20;99.90;;;;;;6312757;22;20118;-92
2023/09/19 08:59:17;;;;;;;11.20;3.65;;;16.30;99.90;;;;;;6307458;22;20039;-91
2023/09/19 09:01:43;;;;;;;21.05;3.60;;;16.30;99.90;;;;;;6306946;22;19999;-92
2023/09/19 09:04:34;;;;;;;16.05;3.20;;;17.50;99.90;;;;;;6280119;22;20070;-93
2023/09/19 09:07:00;;;;;;;9.77;2.95;;;16.80;99.90;;;;;;6312729;22;19995;-91
2023/09/19 09:09:35;;;;;;;15.15;3.95;;;16.40;99.90;;;;;;6331041;22;20014;-90
2023/09/19 09:12:02;;;;;;;21.60;3.20;;;17.20;99.90;;;;;;6321719;22;20003;-91
2023/09/19 09:14:29;;;;;;;13.63;3.63;;;16.60;99.90;;;;;;6307053;22;19999;-92
2023/09/19 09:16:58;;;;;;;13.52;3.53;;;16.60;99.90;;;;;;6307282;22;20015;-91
2023/09/19 09:19:37;;;;;;;13.70;3.42;;;17.50;99.90;;;;;;6251329;22;20025;-93
2023/09/19 09:22:25;;;;;;;16.83;3.85;;;18.00;99.90;;;;;;6306013;22;20030;-90
2023/09/19 09:24:58;;;;;;;12.15;3.30;;;16.80;99.90;;;;;;6307979;22;20038;-91
2023/09/19 09:27:42;;;;;;;16.23;3.45;;;16.90;99.90;;;;;;6308831;22;20010;-91
2023/09/19 09:30:08;;;;;;;15.85;3.55;;;17.80;99.90;;;;;;6326055;22;20011;-90
2023/09/19 09:33:29;;;;;;;18.05;3.08;;;16.90;99.90;;;;;;6311948;22;20067;-89
2023/09/19 09:36:27;;;;;;;17.92;3.20;;;17.00;99.90;;;;;;6318883;22;20069;-91
2023/09/19 09:41:58;;;;;;;20.13;3.70;;;17.00;99.90;;;;;;6308178;22;20602;-91
2023/09/19 09:44:24;;;;;;;13.02;3.20;;;17.30;99.90;;;;;;6307730;22;20007;-90
2023/09/19 09:50:07;;;;;;;;;;;16.40;99.90;;;;;;6158720;23;20450;-90
2023/09/19 09:53:07;;;;;;;21.50;3.58;;;16.90;99.90;;;;;;6160792;23;19912;-90
2023/09/19 09:56:09;;;;;;;13.10;3.65;;;17.10;99.90;;;;;;6283887;22;19999;-91
2023/09/19 09:58:52;;;;;;;12.38;3.88;;;17.20;99.90;;;;;;6310061;22;20003;-90
2023/09/19 10:01:18;;;;;;;15.10;3.63;;;17.20;99.90;;;;;;6316721;22;20019;-90
2023/09/19 10:03:48;;;;;;;14.65;2.75;;;17.20;99.90;;;;;;6334699;22;20014;-92
2023/09/19 10:06:25;;;;;;;19.00;3.28;;;17.20;99.90;;;;;;6325171;22;19999;-90
2023/09/19 10:09:11;;;;;;;15.65;3.15;;;17.30;99.90;;;;;;6311922;22;20006;-90
2023/09/19 10:11:45;;;;;;;8.15;2.35;;;17.40;99.90;;;;;;6309042;22;20349;-90
2023/09/19 10:14:14;;;;;;;13.38;3.15;;;17.50;99.90;;;;;;6310322;22;20328;-89
2023/09/19 10:16:53;;;;;;;13.65;3.08;;;17.30;99.90;;;;;;6307578;22;20015;-89
2023/09/19 10:19:46;;;;;;;7.57;2.65;;;17.50;99.90;;;;;;6307886;22;20030;-89
2023/09/19 10:22:20;;;;;;;13.35;3.03;;;17.40;99.90;;;;;;6309010;22;20371;-90
2023/09/19 10:24:47;;;;;;;23.92;3.75;;;17.40;99.90;;;;;;6308766;22;20007;-86
2023/09/19 10:27:16;;;;;;;17.85;3.13;;;17.50;99.90;;;;;;6309267;22;20429;-90
2023/09/19 10:29:59;;;;;;;13.80;2.92;;;17.40;99.90;;;;;;6310191;22;20000;-90
2023/09/19 10:32:27;;;;;;;9.68;2.63;;;17.10;99.90;;;;;;6334738;22;20011;-90
2023/09/19 10:34:55;;;;;;;10.63;2.65;;;19.00;99.90;;;;;;6312432;22;20007;-90
2023/09/19 10:37:25;;;;;;;13.15;2.42;;;18.00;99.90;;;;;;6308946;22;20451;-91
2023/09/19 10:40:08;;;;;;;14.00;2.92;;;17.60;99.90;;;;;;6294930;22;20010;-92
2023/09/19 10:42:58;;;;;;;9.98;2.10;;;17.70;99.90;;;;;;6306669;22;20014;-89
2023/09/19 10:45:26;;;;;;;10.10;2.88;;;18.30;99.90;;;;;;6308669;22;20332;-88
2023/09/19 10:48:07;;;;;;;9.15;2.25;;;17.70;99.90;;;;;;6291238;22;20004;-89
2023/09/19 10:51:04;;;;;;;9.27;2.85;;;18.10;99.90;;;;;;6313688;22;19999;-91
2023/09/19 10:53:54;;;;;;;13.52;2.22;;;17.80;99.90;;;;;;6301749;22;20038;-90
2023/09/19 10:56:41;;;;;;;10.20;2.25;;;17.90;99.90;;;;;;6255551;22;19987;-89
2023/09/19 10:59:16;;;;;;;12.52;2.72;;;18.00;99.90;;;;;;6314767;22;20007;-89
2023/09/19 11:02:35;;;;;;;10.20;2.67;;;18.10;99.90;;;;;;6307345;22;20030;-89
2023/09/19 11:05:40;;;;;;;8.27;2.30;;;18.10;99.90;;;;;;6184204;23;20460;-90
2023/09/19 11:08:27;;;;;;;10.23;2.22;;;18.20;99.90;;;;;;6182582;23;20005;-90
2023/09/19 11:10:54;;;;;;;10.73;2.25;;;18.70;99.90;;;;;;6297481;22;19999;-90
2023/09/19 11:13:49;;;;;;;7.78;2.53;;;18.40;99.90;;;;;;6308652;22;20359;-89
2023/09/19 11:16:36;;;;;;;10.95;2.15;;;17.90;99.90;;;;;;6306109;22;20061;-89
2023/09/19 11:19:23;;;;;;;7.47;1.80;;;18.30;99.90;;;;;;6307934;22;20014;-90
2023/09/19 11:21:54;;;;;;;7.97;2.10;;;18.40;99.90;;;;;;6307782;22;20019;-91
2023/09/19 11:24:38;;;;;;;7.72;1.80;;;18.40;99.90;;;;;;6319690;22;20003;-89
2023/09/19 11:27:29;;;;;;;7.57;1.95;;;18.30;99.90;;;;;;6309324;22;20420;-88
2023/09/19 11:30:27;;;;;;;13.95;2.25;;;17.80;99.90;;;;;;6316341;22;20006;-88
2023/09/19 11:36:15;;;;;;;7.72;1.55;;;18.00;99.90;;;;;;6168993;23;20033;-90
2023/09/19 11:38:57;;;;;;;9.35;1.88;;;19.80;99.90;;;;;;6153968;23;20405;-88
2023/09/19 11:41:28;;;;;;;10.93;2.05;;;18.40;99.90;;;;;;6254943;22;20006;-89
2023/09/19 11:44:12;;;;;;;13.88;1.77;;;18.60;99.90;;;;;;6306778;22;20053;-89
2023/09/19 11:47:10;;;;;;;8.45;2.03;;;18.40;99.90;;;;;;6307165;22;20007;-89
2023/09/19 11:49:40;;;;;;;8.15;2.50;;;17.50;99.90;;;;;;6313130;22;19999;-88
2023/09/19 11:52:26;;;;;;;5.50;1.75;;;18.80;99.90;;;;;;6317615;22;20519;-89
2023/09/19 11:54:59;;;;;;;4.78;1.50;;;19.70;99.90;;;;;;6307544;22;20022;-89
2023/09/19 11:57:43;;;;;;;8.65;2.47;;;18.30;99.90;;;;;;6306784;22;20011;-88
2023/09/19 12:00:18;;;;;;;6.03;1.77;;;19.20;99.90;;;;;;6307466;22;20072;-90
2023/09/19 12:03:07;;;;;;;9.40;1.98;;;18.40;99.90;;;;;;6307300;22;20481;-89
2023/09/19 12:05:34;;;;;;;10.00;2.10;;;18.30;99.90;;;;;;6307613;22;20027;-89
2023/09/19 12:08:20;;;;;;;8.77;1.98;;;19.20;99.90;;;;;;6298577;22;20775;-89
2023/09/19 12:11:10;;;;;;;6.05;1.65;;;18.40;99.90;;;;;;6307028;22;20007;-89
2023/09/19 12:13:38;;;;;;;8.70;2.30;;;18.40;99.90;;;;;;6307533;22;20423;-90
2023/09/19 12:16:25;;;;;;;6.95;2.40;;;19.00;99.90;;;;;;6307691;22;20080;-90
2023/09/19 12:18:52;;;;;;;6.32;1.50;;;18.30;99.90;;;;;;6305456;22;20007;-88
2023/09/19 12:21:40;;;;;;;6.57;1.60;;;18.40;99.90;;;;;;6307949;22;20003;-91
2023/09/19 12:27:05;;;;;;;9.43;2.10;;;18.40;99.90;;;;;;6307356;22;20072;-91
2023/09/19 12:29:45;;;;;;;6.43;1.60;;;18.40;99.90;;;;;;6307614;22;20320;-91
2023/09/19 12:32:10;;;;;;;9.15;2.00;;;18.60;99.90;;;;;;6308584;22;20484;-90
2023/09/19 12:34:42;;;;;;;8.00;1.85;;;19.50;99.90;;;;;;6300092;22;20053;-87
2023/09/19 12:37:27;;;;;;;8.15;1.90;;;18.70;99.90;;;;;;6311048;22;20025;-87
2023/09/19 12:40:18;;;;;;;11.88;1.48;;;18.40;99.90;;;;;;6311582;22;20007;-88
2023/09/19 12:42:45;;;;;;;6.78;1.83;;;18.70;99.90;;;;;;6306878;22;20003;-87
2023/09/19 12:45:13;;;;;;;10.32;1.80;;;19.70;99.90;;;;;;6312765;22;20495;-88
2023/09/19 12:48:33;;;;;;;5.45;1.88;;;19.60;99.90;;;;;;6305344;22;20003;-91
2023/09/19 12:51:22;;;;;;;6.63;1.50;;;18.30;99.90;;;;;;6306366;22;20011;-92
2023/09/19 12:54:19;;;;;;;6.07;1.45;;;18.30;99.90;;;;;;6303541;22;20030;-91
2023/09/19 12:56:45;;;;;;;7.78;1.77;;;18.30;99.90;;;;;;6306106;22;20019;-89
2023/09/19 12:59:32;;;;;;;5.00;1.63;;;19.60;99.90;;;;;;6305795;22;20274;-90
2023/09/19 13:02:07;;;;;;;8.15;1.50;;;18.20;99.90;;;;;;6305495;22;20007;-87
2023/09/19 13:05:19;;;;;;;3.72;1.50;;;18.20;99.90;;;;;;6303894;22;20023;-88
2023/09/19 13:07:47;;;;;;;6.35;1.73;;;18.10;99.90;;;;;;6181027;23;20001;-87
2023/09/19 13:10:15;;;;;;;7.13;1.58;;;18.20;99.90;;;;;;6181476;23;20004;-88
2023/09/19 13:13:31;;;;;;;7.72;2.03;;;18.20;99.90;;;;;;6182683;23;19997;-89
2023/09/19 13:15:57;;;;;;;6.78;1.55;;;18.40;99.90;;;;;;6186495;23;20001;-87
2023/09/19 13:18:43;;;;;;;9.98;1.90;;;19.70;99.90;;;;;;6183012;23;20013;-83
2023/09/19 13:21:22;;;;;;;6.90;1.83;;;19.90;99.90;;;;;;6178702;23;20034;-86
2023/09/19 13:24:36;;;;;;;3.60;1.17;;;20.00;99.90;;;;;;6173953;23;20005;-86
2023/09/19 13:27:03;;;;;;;9.23;2.00;;;18.80;99.90;;;;;;6183971;23;20465;-85
2023/09/19 13:29:29;;;;;;;2.83;1.13;;;18.80;99.90;;;;;;6287671;22;19995;-87
2023/09/19 13:32:11;;;;;;;6.93;2.10;;;18.80;99.90;;;;;;6307917;22;20424;-86
2023/09/19 13:34:37;;;;;;;9.13;2.15;;;19.90;99.90;;;;;;6306976;22;20402;-85
2023/09/19 13:37:04;;;;;;;4.10;1.77;;;20.20;99.90;;;;;;6308805;22;20084;-87
2023/09/19 13:39:47;;;;;;;7.38;2.30;;;19.20;99.90;;;;;;6313395;22;20370;-86
2023/09/19 13:42:25;;;;;;;9.55;2.05;;;19.50;99.90;;;;;;6312781;22;20078;-86
2023/09/19 13:44:51;;;;;;;6.10;1.60;;;18.80;99.90;;;;;;6308095;22;20121;-86